Time,TemperatureF,DewpointF,PressureIn,WindDirection,WindDirectionDegrees,WindSpeedMPH,WindSpeedGustMPH,Humidity,HourlyPrecipIn,Conditions,Clouds,dailyrainin,SoftwareType,DateUTC
2013-02-26 00:02:00,24.6,23.1,29.88,East,90,5.3,-999.0,94,-99.99,,,0.00,Acu-Link.com,2013-02-26 06:02:00,
2013-02-26 00:17:00,24.4,22.9,29.87,ENE,67,9.9,-999.0,94,-99.99,,,0.00,Acu-Link.com,2013-02-26 06:17:00,
2013-02-26 00:32:00,24.4,22.9,29.87,ENE,67,4.7,-999.0,94,-99.99,,,0.00,Acu-Link.com,2013-02-26 06:32:00,
2013-02-26 00:47:00,24.3,22.8,29.87,East,90,5.3,-999.0,94,-99.99,,,0.00,Acu-Link.com,2013-02-26 06:47:00,
2013-02-26 01:02:00,24.1,22.6,29.89,ESE,112,4.7,-999.0,94,-99.99,,,0.00,Acu-Link.com,2013-02-26 07:02:00,
2013-02-26 01:17:00,23.2,21.5,29.90,ESE,112,8.9,-999.0,93,-99.99,,,0.00,Acu-Link.com,2013-02-26 07:17:00,
2013-02-26 01:32:00,22.6,20.9,29.89,East,90,5.3,-999.0,93,-99.99,,,0.00,Acu-Link.com,2013-02-26 07:32:00,
2013-02-26 01:47:00,22.3,20.3,29.89,ENE,67,4.7,-999.0,92,-99.99,,,0.00,Acu-Link.com,2013-02-26 07:47:00,
2013-02-26 02:02:00,21.4,19.4,29.88,East,90,9.4,-999.0,92,-99.99,,,0.00,Acu-Link.com,2013-02-26 08:02:00,
2013-02-26 02:17:00,20.5,18.8,29.88,ENE,67,5.3,-999.0,93,-99.99,,,0.00,Acu-Link.com,2013-02-26 08:17:00,
2013-02-26 02:32:00,19.9,18.2,29.87,East,90,9.4,-999.0,93,-99.99,,,0.00,Acu-Link.com,2013-02-26 08:32:00,
2013-02-26 02:47:00,19.6,17.9,29.88,East,90,3.2,-999.0,93,-99.99,,,0.00,Acu-Link.com,2013-02-26 08:47:00,
2013-02-26 06:03:00,16.5,15.6,29.83,NE,45,7.8,-999.0,96,-99.99,,,0.00,Acu-Link.com,2013-02-26 12:03:00,
2013-02-26 06:19:00,16.2,15.3,29.82,NE,45,6.8,-999.0,96,-99.99,,,0.00,Acu-Link.com,2013-02-26 12:19:00,
2013-02-26 06:34:00,16.2,15.3,29.82,NE,45,6.3,-999.0,96,-99.99,,,0.00,Acu-Link.com,2013-02-26 12:34:00,
2013-02-26 06:49:00,16.2,15.0,29.83,North,0,7.3,-999.0,95,-99.99,,,0.00,Acu-Link.com,2013-02-26 12:49:00,
2013-02-26 07:04:00,16.2,15.0,29.82,NE,45,7.3,-999.0,95,-99.99,,,0.00,Acu-Link.com,2013-02-26 13:04:00,
2013-02-26 07:19:00,16.2,15.0,29.83,NE,45,6.3,-999.0,95,-99.99,,,0.00,Acu-Link.com,2013-02-26 13:19:00,
2013-02-26 07:34:00,16.3,15.1,29.83,NE,45,5.3,-999.0,95,-99.99,,,0.00,Acu-Link.com,2013-02-26 13:34:00,
2013-02-26 07:49:00,16.7,15.5,29.83,East,90,5.3,-999.0,95,-99.99,,,0.00,Acu-Link.com,2013-02-26 13:49:00,
2013-02-26 08:04:00,17.2,16.0,29.83,ENE,67,5.3,-999.0,95,-99.99,,,0.00,Acu-Link.com,2013-02-26 14:04:00,
2013-02-26 08:20:00,17.4,16.2,29.84,NE,45,6.8,-999.0,95,-99.99,,,0.00,Acu-Link.com,2013-02-26 14:20:00,
2013-02-26 08:35:00,18.1,16.7,29.84,East,90,5.3,-999.0,94,-99.99,,,0.00,Acu-Link.com,2013-02-26 14:35:00,
2013-02-26 08:50:00,18.9,17.5,29.84,NE,45,6.8,-999.0,94,-99.99,,,0.00,Acu-Link.com,2013-02-26 14:50:00,
2013-02-26 09:06:00,19.6,18.2,29.85,NE,45,4.7,-999.0,94,-99.99,,,0.00,Acu-Link.com,2013-02-26 15:06:00,
2013-02-26 09:21:00,20.1,18.7,29.85,ENE,67,6.8,-999.0,94,-99.99,,,0.00,Acu-Link.com,2013-02-26 15:21:00,
2013-02-26 09:36:00,21.0,19.6,29.85,East,90,5.3,-999.0,94,-99.99,,,0.00,Acu-Link.com,2013-02-26 15:36:00,
2013-02-26 09:51:00,21.4,19.9,29.86,NE,45,4.7,-999.0,94,-99.99,,,0.00,Acu-Link.com,2013-02-26 15:51:00,
2013-02-26 10:06:00,21.7,20.2,29.87,East,90,6.8,-999.0,94,-99.99,,,0.00,Acu-Link.com,2013-02-26 16:06:00,
2013-02-26 10:21:00,22.3,20.8,29.86,North,0,4.7,-999.0,94,-99.99,,,0.00,Acu-Link.com,2013-02-26 16:21:00,
2013-02-26 10:37:00,22.6,21.1,29.86,NNE,22,6.3,-999.0,94,-99.99,,,0.00,Acu-Link.com,2013-02-26 16:37:00,
2013-02-26 10:52:00,23.2,21.7,29.86,NE,45,5.8,-999.0,94,-99.99,,,0.00,Acu-Link.com,2013-02-26 16:52:00,
2013-02-26 11:07:00,23.7,22.2,29.85,NNE,22,5.3,-999.0,94,-99.99,,,0.00,Acu-Link.com,2013-02-26 17:07:00,
2013-02-26 11:22:00,24.4,22.9,29.86,NE,45,6.8,-999.0,94,-99.99,,,0.00,Acu-Link.com,2013-02-26 17:22:00,
2013-02-26 11:37:00,25.5,23.8,29.85,NE,45,5.8,-999.0,93,-99.99,,,0.00,Acu-Link.com,2013-02-26 17:37:00,
2013-02-26 11:52:00,26.2,24.2,29.85,NE,45,7.3,-999.0,92,-99.99,,,0.00,Acu-Link.com,2013-02-26 17:52:00,
2013-02-26 12:07:00,26.6,24.3,29.85,NE,45,3.7,-999.0,91,-99.99,,,0.00,Acu-Link.com,2013-02-26 18:07:00,
2013-02-26 12:23:00,27.1,24.6,29.84,ENE,67,5.3,-999.0,90,-99.99,,,0.00,Acu-Link.com,2013-02-26 18:23:00,
2013-02-26 12:38:00,27.9,24.5,29.83,NNE,22,6.8,-999.0,87,-99.99,,,0.00,Acu-Link.com,2013-02-26 18:38:00,
2013-02-26 12:53:00,28.4,24.5,29.83,NE,45,5.3,-999.0,85,-99.99,,,0.00,Acu-Link.com,2013-02-26 18:53:00,
2013-02-26 13:08:00,29.7,25.2,29.82,NNE,22,6.8,-999.0,83,-99.99,,,0.00,Acu-Link.com,2013-02-26 19:08:00,
2013-02-26 13:23:00,28.6,24.4,29.82,WNW,292,5.3,-999.0,84,-99.99,,,0.00,Acu-Link.com,2013-02-26 19:23:00,
2013-02-26 13:38:00,30.2,25.1,29.81,WNW,292,5.8,-999.0,81,-99.99,,,0.00,Acu-Link.com,2013-02-26 19:38:00,
2013-02-26 13:54:00,29.8,24.7,29.81,NNW,337,6.8,-999.0,81,-99.99,,,0.00,Acu-Link.com,2013-02-26 19:54:00,
2013-02-26 14:09:00,30.4,24.4,29.80,NNW,337,10.4,-999.0,78,-99.99,,,0.00,Acu-Link.com,2013-02-26 20:09:00,
2013-02-26 14:24:00,30.9,24.6,29.79,NW,315,6.3,-999.0,77,-99.99,,,0.00,Acu-Link.com,2013-02-26 20:24:00,
2013-02-26 14:39:00,31.1,24.7,29.79,NNE,22,9.9,-999.0,77,-99.99,,,0.00,Acu-Link.com,2013-02-26 20:39:00,
2013-02-26 14:54:00,31.1,24.7,29.78,NNE,22,8.9,-999.0,77,-99.99,,,0.00,Acu-Link.com,2013-02-26 20:54:00,
2013-02-26 15:09:00,30.6,24.6,29.79,NE,45,10.4,-999.0,78,-99.99,,,0.00,Acu-Link.com,2013-02-26 21:09:00,
2013-02-26 15:24:00,30.0,24.3,29.79,NE,45,11.9,-999.0,79,-99.99,,,0.00,Acu-Link.com,2013-02-26 21:24:00,
2013-02-26 15:39:00,29.7,24.0,29.80,NNE,22,6.8,-999.0,79,-99.99,,,0.00,Acu-Link.com,2013-02-26 21:39:00,
2013-02-26 15:54:00,29.7,24.0,29.80,ENE,67,7.8,-999.0,79,-99.99,,,0.00,Acu-Link.com,2013-02-26 21:54:00,
2013-02-26 16:09:00,29.5,23.5,29.81,ENE,67,9.4,-999.0,78,-99.99,,,0.00,Acu-Link.com,2013-02-26 22:09:00,
2013-02-26 16:24:00,29.1,23.7,29.80,NNE,22,10.4,-999.0,80,-99.99,,,0.00,Acu-Link.com,2013-02-26 22:24:00,
2013-02-26 16:39:00,28.4,23.0,29.81,NNW,337,8.3,-999.0,80,-99.99,,,0.00,Acu-Link.com,2013-02-26 22:39:00,
2013-02-26 16:54:00,27.9,22.8,29.81,NE,45,5.8,-999.0,81,-99.99,,,0.00,Acu-Link.com,2013-02-26 22:54:00,
2013-02-26 17:09:00,27.3,22.5,29.81,NNE,22,10.4,-999.0,82,-99.99,,,0.00,Acu-Link.com,2013-02-26 23:09:00,
2013-02-26 17:24:00,27.3,22.8,29.80,North,0,6.3,-999.0,83,-99.99,,,0.00,Acu-Link.com,2013-02-26 23:24:00,
2013-02-26 17:39:00,26.8,22.6,29.81,WNW,292,9.4,-999.0,84,-99.99,,,0.00,Acu-Link.com,2013-02-26 23:39:00,
2013-02-26 17:54:00,26.6,22.4,29.81,NNE,22,5.8,-999.0,84,-99.99,,,0.00,Acu-Link.com,2013-02-26 23:54:00,
2013-02-26 18:10:00,26.1,22.2,29.81,NE,45,9.9,-999.0,85,-99.99,,,0.00,Acu-Link.com,2013-02-27 00:10:00,
2013-02-26 18:25:00,25.7,22.1,29.82,NNE,22,6.8,-999.0,86,-99.99,,,0.00,Acu-Link.com,2013-02-27 00:25:00,
2013-02-26 18:40:00,25.3,21.7,29.83,WNW,292,14.0,-999.0,86,-99.99,,,0.00,Acu-Link.com,2013-02-27 00:40:00,
2013-02-26 18:55:00,25.2,21.6,29.83,NNE,22,10.9,-999.0,86,-99.99,,,0.00,Acu-Link.com,2013-02-27 00:55:00,
2013-02-26 19:10:00,25.0,21.4,29.84,NNW,337,10.9,-999.0,86,-99.99,,,0.00,Acu-Link.com,2013-02-27 01:10:00,
2013-02-26 19:25:00,24.6,21.3,29.85,NNE,22,7.3,-999.0,87,-99.99,,,0.00,Acu-Link.com,2013-02-27 01:25:00,
2013-02-26 19:40:00,24.6,21.3,29.85,NNE,22,10.4,-999.0,87,-99.99,,,0.00,Acu-Link.com,2013-02-27 01:40:00,
2013-02-26 19:55:00,24.6,21.3,29.85,North,0,7.8,-999.0,87,-99.99,,,0.00,Acu-Link.com,2013-02-27 01:55:00,
2013-02-26 20:10:00,24.3,21.0,29.85,NE,45,10.4,-999.0,87,-99.99,,,0.00,Acu-Link.com,2013-02-27 02:10:00,
2013-02-26 20:26:00,23.9,20.9,29.85,NNW,337,9.9,-999.0,88,-99.99,,,0.00,Acu-Link.com,2013-02-27 02:26:00,
2013-02-26 20:41:00,23.9,20.9,29.85,NNE,22,5.3,-999.0,88,-99.99,,,0.00,Acu-Link.com,2013-02-27 02:41:00,
2013-02-26 20:56:00,23.9,20.9,29.84,NNW,337,7.3,-999.0,88,-99.99,,,0.00,Acu-Link.com,2013-02-27 02:56:00,
2013-02-26 21:11:00,23.9,20.9,29.84,NNE,22,10.9,-999.0,88,-99.99,,,0.00,Acu-Link.com,2013-02-27 03:11:00,
2013-02-26 21:26:00,23.9,21.1,29.84,NW,315,10.4,-999.0,89,-99.99,,,0.00,Acu-Link.com,2013-02-27 03:26:00,
2013-02-26 21:41:00,23.9,21.1,29.84,SSE,157,9.9,-999.0,89,-99.99,,,0.00,Acu-Link.com,2013-02-27 03:41:00,
2013-02-26 21:56:00,23.9,21.1,29.84,NW,315,13.0,-999.0,89,-99.99,,,0.00,Acu-Link.com,2013-02-27 03:56:00,
2013-02-26 22:11:00,23.9,21.1,29.84,North,0,9.9,-999.0,89,-99.99,,,0.00,Acu-Link.com,2013-02-27 04:11:00,
2013-02-26 22:27:00,23.9,21.1,29.83,NNW,337,7.3,-999.0,89,-99.99,,,0.00,Acu-Link.com,2013-02-27 04:27:00,
2013-02-26 22:42:00,23.7,20.9,29.83,North,0,10.4,-999.0,89,-99.99,,,0.00,Acu-Link.com,2013-02-27 04:42:00,
2013-02-26 22:57:00,23.5,21.0,29.83,North,0,9.4,-999.0,90,-99.99,,,0.00,Acu-Link.com,2013-02-27 04:57:00,
2013-02-26 23:12:00,23.5,21.0,29.83,WNW,292,5.3,-999.0,90,-99.99,,,0.00,Acu-Link.com,2013-02-27 05:12:00,
2013-02-26 23:27:00,23.4,20.9,29.84,NNW,337,6.3,-999.0,90,-99.99,,,0.00,Acu-Link.com,2013-02-27 05:27:00,
2013-02-26 23:43:00,23.2,20.7,29.85,North,0,6.8,-999.0,90,-99.99,,,0.00,Acu-Link.com,2013-02-27 05:43:00,
2013-02-26 23:58:00,23.0,20.5,29.85,NW,315,9.4,-999.0,90,-99.99,,,0.00,Acu-Link.com,2013-02-27 05:58:00,